Time;durP1;ratioP1;P1;durP2;ratioP2;P2;SDS_P1;SDS_P2;PMS_P1;PMS_P2;Temp;Humidity;BMP_temperature;BMP_pressure;BME280_temperature;BME280_humidity;BME280_pressure;Samples;Min_cycle;Max_cycle;Signal;HPM_P1;HPM_P2
2022/09/06 00:02:24;;;;;;;5.50;4.00;;;;;;;21.96;61.95;101471.88;6306716;22;20010;-58
2022/09/06 00:04:49;;;;;;;5.70;4.10;;;;;;;21.94;62.63;101484.66;6307973;22;20085;-58
2022/09/06 00:07:14;;;;;;;4.75;3.90;;;;;;;21.94;63.07;101547.69;6307563;22;20561;-59
2022/09/06 00:09:40;;;;;;;6.65;3.70;;;;;;;21.82;62.58;101553.00;6305588;22;20374;-59
2022/09/06 00:12:05;;;;;;;5.63;3.83;;;;;;;21.77;62.69;101551.13;6308302;22;20011;-59
2022/09/06 00:14:31;;;;;;;5.65;3.95;;;;;;;21.66;63.29;101577.88;6306971;22;20046;-59
2022/09/06 00:16:56;;;;;;;6.25;3.95;;;;;;;21.65;63.21;101592.31;6306860;22;20007;-59
2022/09/06 00:19:21;;;;;;;4.60;3.35;;;;;;;21.66;62.60;101588.34;6307220;22;20011;-59
2022/09/06 00:21:46;;;;;;;6.00;4.22;;;;;;;21.62;62.75;101593.78;6307232;22;20007;-59
2022/09/06 00:24:12;;;;;;;4.75;3.72;;;;;;;21.70;63.04;101618.50;6306783;22;20415;-59
2022/09/06 00:26:37;;;;;;;6.78;4.38;;;;;;;21.74;63.31;101618.72;6306247;22;20036;-59
2022/09/06 00:29:02;;;;;;;5.03;4.50;;;;;;;21.68;63.43;101612.31;6307708;22;20003;-59
2022/09/06 00:31:27;;;;;;;5.93;4.28;;;;;;;21.71;62.66;101606.03;6305964;22;20353;-58
2022/09/06 00:33:53;;;;;;;7.90;4.20;;;;;;;21.68;62.43;101612.31;6307694;22;20446;-59
2022/09/06 00:36:19;;;;;;;4.40;4.00;;;;;;;21.71;62.82;101617.34;6307378;22;20030;-58
2022/09/06 00:38:44;;;;;;;7.03;4.07;;;;;;;21.65;63.71;101607.28;6306109;22;20308;-57
2022/09/06 00:41:13;;;;;;;6.22;4.90;;;;;;;21.63;63.91;101595.47;6306915;22;20005;-57
2022/09/06 00:43:39;;;;;;;5.45;4.38;;;;;;;21.65;63.83;101592.31;6305997;22;20072;-58
2022/09/06 00:46:06;;;;;;;5.97;3.83;;;;;;;21.66;63.42;101592.00;6306600;22;20058;-59
2022/09/06 00:48:33;;;;;;;6.93;4.53;;;;;;;21.68;64.19;101583.22;6307343;22;20008;-58
2022/09/06 00:51:01;;;;;;;5.22;4.07;;;;;;;21.64;65.05;101577.34;6305634;22;20030;-58
2022/09/06 00:53:27;;;;;;;6.45;4.82;;;;;;;21.62;64.54;101571.19;6307316;22;19999;-58
2022/09/06 00:55:53;;;;;;;6.22;4.40;;;;;;;21.61;64.93;101568.66;6306403;22;20427;-58
2022/09/06 00:58:19;;;;;;;4.60;4.20;;;;;;;21.59;65.51;101560.50;6306690;22;20350;-58
2022/09/06 01:00:45;;;;;;;6.72;4.80;;;;;;;21.62;65.48;101556.22;6307079;22;20027;-58
2022/09/06 01:03:11;;;;;;;5.78;5.05;;;;;;;21.60;65.36;101558.50;6307984;22;20415;-58
2022/09/06 01:05:59;;;;;;;7.20;4.88;;;;;;;21.63;64.30;101550.25;6307050;22;20003;-58
2022/09/06 01:08:58;;;;;;;4.60;4.20;;;;;;;21.73;63.29;101541.59;6306825;22;20362;-58
2022/09/06 01:12:02;;;;;;;8.55;4.68;;;;;;;21.68;63.75;101538.84;6305945;22;20383;-58
2022/09/06 01:15:05;;;;;;;5.57;4.05;;;;;;;21.68;63.86;101538.00;6306842;22;20014;-58
2022/09/06 01:18:09;;;;;;;4.93;4.20;;;;;;;21.70;63.75;101525.25;6306038;22;20015;-59
2022/09/06 01:20:52;;;;;;;7.32;4.95;;;;;;;21.62;64.92;101516.69;6306266;22;20455;-58
2022/09/06 01:23:39;;;;;;;8.45;4.88;;;;;;;21.55;65.20;101503.78;6307075;22;20084;-58
2022/09/06 01:26:35;;;;;;;7.10;5.05;;;;;;;21.65;64.08;101477.31;6305654;22;20012;-58
2022/09/06 01:29:06;;;;;;;6.55;4.90;;;;;;;21.62;64.41;101451.69;6306899;22;20336;-58
2022/09/06 01:31:57;;;;;;;5.78;5.05;;;;;;;21.68;63.34;101436.31;6306506;22;20370;-58
2022/09/06 01:34:30;;;;;;;6.13;4.90;;;;;;;21.50;64.76;101423.97;6307136;22;20007;-58
2022/09/06 01:37:04;;;;;;;5.40;4.90;;;;;;;21.60;63.82;101401.16;6306662;22;20004;-58
2022/09/06 01:39:32;;;;;;;5.32;4.82;;;;;;;21.63;63.93;101408.16;6305946;22;20003;-58
2022/09/06 01:42:06;;;;;;;5.13;4.63;;;;;;;21.54;64.06;101402.41;6305385;22;19999;-58
2022/09/06 01:44:34;;;;;;;5.80;4.28;;;;;;;21.59;63.84;101393.00;6306594;22;20033;-59
2022/09/06 01:47:16;;;;;;;5.60;4.63;;;;;;;21.50;63.90;101388.09;6304997;22;20058;-58
2022/09/06 01:50:11;;;;;;;6.75;4.78;;;;;;;21.59;63.23;101373.22;6306879;22;20003;-58
2022/09/06 01:52:45;;;;;;;5.13;4.00;;;;;;;21.48;63.91;101361.28;6306737;22;20034;-58
2022/09/06 01:55:35;;;;;;;5.28;4.18;;;;;;;21.46;64.04;101347.50;6305852;22;20093;-58
2022/09/06 01:58:41;;;;;;;5.07;4.38;;;;;;;21.49;63.11;101338.38;6305760;22;20818;-58
2022/09/06 02:01:20;;;;;;;4.90;4.20;;;;;;;21.41;63.31;101325.00;6304701;22;20004;-58
2022/09/06 02:03:54;;;;;;;7.57;4.82;;;;;;;21.40;63.59;101331.81;6306573;22;20034;-58
2022/09/06 02:06:24;;;;;;;6.03;4.68;;;;;;;21.29;64.45;101390.44;6305845;22;20014;-58
2022/09/06 02:08:59;;;;;;;5.45;4.60;;;;;;;21.28;64.52;101421.81;6304939;22;20089;-58
2022/09/06 02:11:30;;;;;;;5.75;4.35;;;;;;;21.22;64.81;101397.63;6306693;22;20026;-58
2022/09/06 02:14:03;;;;;;;6.13;4.35;;;;;;;21.14;64.84;101384.25;6305894;22;20458;-58
2022/09/06 02:16:34;;;;;;;4.85;4.05;;;;;;;21.20;64.08;101392.31;6303866;22;20053;-58
2022/09/06 02:19:11;;;;;;;5.40;4.90;;;;;;;21.12;64.66;101393.03;6306507;22;20011;-58
2022/09/06 02:21:41;;;;;;;7.63;4.75;;;;;;;21.08;65.66;101386.34;6305647;22;20003;-58
2022/09/06 02:24:14;;;;;;;5.53;4.93;;;;;;;21.12;65.08;101386.56;6305702;22;19999;-58
2022/09/06 02:26:41;;;;;;;;;;;;;;;21.37;62.76;101388.06;6306203;22;20011;-58
2022/09/06 02:29:07;;;;;;;5.45;4.60;;;;;;;21.07;65.94;101401.63;6304825;22;19907;-58
2022/09/06 02:31:36;;;;;;;7.30;5.05;;;;;;;21.04;66.22;101390.94;6305663;22;20010;-57
2022/09/06 02:34:02;;;;;;;5.15;4.50;;;;;;;21.07;65.95;101393.16;6306018;22;20003;-58
2022/09/06 02:36:29;;;;;;;4.85;4.32;;;;;;;21.00;66.11;101381.41;6304815;22;20079;-58
2022/09/06 02:38:55;;;;;;;8.80;4.85;;;;;;;20.97;66.14;101376.38;6306384;22;20034;-59
2022/09/06 02:41:23;;;;;;;6.38;5.15;;;;;;;20.95;66.18;101375.88;6305510;22;20419;-58
2022/09/06 02:43:48;;;;;;;8.27;5.55;;;;;;;20.89;66.35;101377.94;6305173;22;20057;-58
2022/09/06 02:46:13;;;;;;;8.15;5.20;;;;;;;20.92;66.41;101373.66;6306320;22;20046;-58
2022/09/06 02:48:39;;;;;;;5.78;5.20;;;;;;;20.91;66.26;101377.66;6305457;22;20034;-59
2022/09/06 02:51:06;;;;;;;7.55;5.90;;;;;;;20.91;66.08;101377.66;6304300;22;20010;-58
2022/09/06 02:53:32;;;;;;;6.50;5.60;;;;;;;20.86;66.36;101389.00;6306056;22;20304;-58
2022/09/06 02:55:57;;;;;;;7.07;5.78;;;;;;;;;;6305592;22;20009;-58
2022/09/06 02:58:23;;;;;;;6.83;5.30;;;;;;;20.79;66.62;101387.44;6305104;22;20074;-58
2022/09/06 03:00:50;;;;;;;6.07;5.22;;;;;;;20.75;66.73;101386.38;6306047;22;20238;-58
2022/09/06 03:03:15;;;;;;;5.68;5.18;;;;;;;20.75;66.91;101392.03;6305944;22;20011;-58
2022/09/06 03:05:41;;;;;;;7.57;5.55;;;;;;;20.78;66.76;101385.75;6305206;22;20007;-58
2022/09/06 03:08:06;;;;;;;6.80;6.10;;;;;;;20.73;66.96;101399.94;6305817;22;20084;-58
2022/09/06 03:10:32;;;;;;;6.45;5.85;;;;;;;20.71;67.09;101393.78;6307400;22;20003;-58
2022/09/06 03:12:57;;;;;;;6.55;5.65;;;;;;;20.75;67.27;101391.16;6304923;22;20416;-58
2022/09/06 03:15:22;;;;;;;7.32;6.32;;;;;;;20.74;67.01;101381.03;6306019;22;19999;-58
2022/09/06 03:17:48;;;;;;;6.88;6.22;;;;;;;20.75;67.07;101391.16;6305341;22;20420;-58
2022/09/06 03:20:13;;;;;;;7.47;6.13;;;;;;;20.68;67.43;101388.75;6305518;22;20049;-58
2022/09/06 03:22:39;;;;;;;7.30;6.03;;;;;;;20.76;67.40;101387.22;6306270;22;20006;-58
2022/09/06 03:25:05;;;;;;;7.13;6.50;;;;;;;20.69;66.96;101389.59;6305490;22;20007;-58
2022/09/06 03:27:31;;;;;;;6.30;5.70;;;;;;;20.69;66.79;101389.59;6304612;22;20045;-58
2022/09/06 03:29:56;;;;;;;6.78;6.18;;;;;;;20.62;66.79;101387.16;6305909;22;20415;-58
2022/09/06 03:32:21;;;;;;;6.47;5.88;;;;;;;20.60;66.79;101392.28;6305624;22;20344;-58
2022/09/06 03:34:47;;;;;;;6.80;6.10;;;;;;;20.57;66.92;101392.88;6305311;22;20003;-58
2022/09/06 03:37:12;;;;;;;7.03;5.43;;;;;;;20.59;66.99;101393.41;6305484;22;20081;-58
2022/09/06 03:39:37;;;;;;;6.80;6.03;;;;;;;20.57;66.73;101392.88;6304441;22;20039;-58
2022/09/06 03:42:03;;;;;;;6.22;4.97;;;;;;;20.53;67.00;101383.38;6304954;22;19999;-58
2022/09/06 03:44:28;;;;;;;7.03;5.90;;;;;;;20.54;66.77;101385.03;6305437;22;20018;-58
2022/09/06 03:46:53;;;;;;;6.32;5.72;;;;;;;20.52;67.05;101379.72;6303977;22;20015;-58
2022/09/06 03:49:19;;;;;;;6.45;5.85;;;;;;;20.45;67.05;101384.88;6305919;22;20008;-58
2022/09/06 03:51:47;;;;;;;6.60;5.93;;;;;;;20.42;66.76;101385.47;6305443;22;20362;-58
2022/09/06 03:54:12;;;;;;;8.13;6.25;;;;;;;20.43;66.84;101389.97;6305085;22;20041;-58
2022/09/06 03:56:37;;;;;;;8.32;6.28;;;;;;;20.47;66.97;101382.56;6304823;22;20003;-58
2022/09/06 03:59:03;;;;;;;6.30;5.60;;;;;;;20.39;67.10;101393.72;6306300;22;20035;-58
2022/09/06 04:01:28;;;;;;;5.93;5.40;;;;;;;20.40;66.72;101395.41;6306260;22;19999;-58
2022/09/06 04:03:53;;;;;;;6.07;5.47;;;;;;;20.37;66.93;101398.84;6306995;22;20003;-58
2022/09/06 04:06:22;;;;;;;6.38;5.75;;;;;;;20.32;66.99;101400.59;6306996;22;20010;-58
2022/09/06 04:08:47;;;;;;;5.55;5.05;;;;;;;20.33;66.55;101393.81;6306902;22;20023;-58
2022/09/06 04:11:12;;;;;;;6.60;5.90;;;;;;;20.28;67.08;101401.50;6306499;22;20010;-58
2022/09/06 04:13:38;;;;;;;6.50;5.90;;;;;;;20.27;66.81;101413.91;6307444;22;20090;-59
2022/09/06 04:16:04;;;;;;;9.23;6.07;;;;;;;20.25;66.62;101419.88;6306334;22;20013;-58
2022/09/06 04:18:30;;;;;;;8.15;6.00;;;;;;;20.22;66.88;101420.47;6307315;22;19999;-59
2022/09/06 04:20:56;;;;;;;8.13;6.25;;;;;;;20.23;66.94;101419.31;6306637;22;20006;-59
2022/09/06 04:23:23;;;;;;;6.95;6.28;;;;;;;20.16;66.71;101430.16;6306246;22;20003;-58
2022/09/06 04:25:51;;;;;;;6.80;5.93;;;;;;;20.13;66.69;101433.56;6307165;22;20014;-58
2022/09/06 04:28:17;;;;;;;6.60;5.93;;;;;;;20.09;67.08;101424.06;6307585;22;20078;-58
2022/09/06 04:30:44;;;;;;;7.25;6.65;;;;;;;20.13;66.69;101427.09;6306420;22;20011;-59
2022/09/06 04:33:09;;;;;;;8.93;6.63;;;;;;;20.13;67.03;101419.47;6307262;22;20003;-59
2022/09/06 04:35:35;;;;;;;7.68;6.35;;;;;;;20.14;66.62;101418.34;6307428;22;20090;-59
2022/09/06 04:38:01;;;;;;;8.38;6.63;;;;;;;20.05;66.78;101420.16;6305833;22;20003;-58
2022/09/06 04:40:27;;;;;;;9.38;6.70;;;;;;;20.07;66.70;101426.31;6306131;22;20011;-59
2022/09/06 04:42:55;;;;;;;7.40;6.70;;;;;;;20.06;66.85;101430.28;6306494;22;20007;-59
2022/09/06 04:45:21;;;;;;;9.15;7.20;;;;;;;20.07;66.51;101424.34;6306781;22;20416;-58
2022/09/06 04:47:46;;;;;;;7.50;6.72;;;;;;;20.04;66.60;101424.97;6306884;22;20019;-58
2022/09/06 04:50:27;;;;;;;7.70;6.90;;;;;;;20.03;66.43;101430.88;6305838;22;20053;-58
2022/09/06 04:52:52;;;;;;;9.13;7.05;;;;;;;20.03;66.53;101436.53;6307140;22;20442;-58
2022/09/06 04:55:17;;;;;;;7.60;6.80;;;;;;;19.96;66.75;101419.13;6306890;22;20004;-59
2022/09/06 04:57:42;;;;;;;8.65;7.10;;;;;;;19.96;66.67;101419.13;6305716;22;20027;-59
2022/09/06 05:00:08;;;;;;;8.48;7.28;;;;;;;19.99;66.73;101425.00;6306939;22;20007;-58
2022/09/06 05:02:34;;;;;;;7.82;7.10;;;;;;;19.89;67.15;101427.16;6306698;22;20018;-59
2022/09/06 05:04:59;;;;;;;10.25;7.80;;;;;;;19.90;66.82;101426.00;6306325;22;20034;-58
2022/09/06 05:07:24;;;;;;;8.02;6.60;;;;;;;19.95;66.69;101415.50;6307407;22;20070;-58
2022/09/06 05:09:50;;;;;;;9.82;7.40;;;;;;;19.92;66.73;101423.72;6307075;22;20288;-58
2022/09/06 05:12:15;;;;;;;8.13;7.32;;;;;;;19.89;66.99;101413.06;6305496;22;20003;-59
2022/09/06 05:14:40;;;;;;;11.13;7.20;;;;;;;19.86;67.24;101415.34;6306991;22;20026;-59
2022/09/06 05:17:05;;;;;;;10.07;6.95;;;;;;;19.85;67.02;101416.47;6307642;22;20053;-59
2022/09/06 05:19:31;;;;;;;9.23;7.70;;;;;;;19.82;67.19;101421.88;6305808;22;20010;-58
2022/09/06 05:21:56;;;;;;;8.30;7.50;;;;;;;19.83;67.36;101417.91;6306705;22;19995;-58
2022/09/06 05:24:21;;;;;;;8.60;7.57;;;;;;;19.80;67.23;101422.16;6306709;22;20034;-58
2022/09/06 05:26:46;;;;;;;10.63;8.50;;;;;;;19.81;67.20;101415.41;6305217;22;20014;-58
2022/09/06 05:29:12;;;;;;;9.75;7.70;;;;;;;19.89;67.14;101419.53;6306764;22;20059;-58
2022/09/06 05:31:37;;;;;;;12.27;8.30;;;;;;;19.77;67.44;101422.78;6306252;22;20010;-57
2022/09/06 05:34:02;;;;;;;8.68;7.68;;;;;;;19.82;67.43;101427.50;6306105;22;20007;-58
2022/09/06 05:36:29;;;;;;;8.90;8.00;;;;;;;19.78;67.52;101423.63;6306388;22;20374;-58
2022/09/06 05:38:55;;;;;;;9.13;7.85;;;;;;;19.78;67.47;101438.53;6306379;22;20014;-58
2022/09/06 05:41:22;;;;;;;9.15;7.65;;;;;;;19.84;67.38;101428.88;6305796;22;19999;-58
2022/09/06 05:43:47;;;;;;;9.25;7.70;;;;;;;19.76;67.48;101432.34;6306596;22;20102;-58
2022/09/06 05:46:12;;;;;;;11.98;8.23;;;;;;;19.82;67.23;101433.97;6304795;22;20112;-58
2022/09/06 05:48:38;;;;;;;8.48;7.53;;;;;;;19.83;67.33;101432.81;6306874;22;20007;-58
2022/09/06 05:51:11;;;;;;;12.25;7.78;;;;;;;19.80;67.66;101430.59;6306618;22;20007;-58
2022/09/06 05:53:41;;;;;;;8.02;7.28;;;;;;;19.88;67.07;101440.38;6305217;22;20004;-58
2022/09/06 05:56:08;;;;;;;9.38;7.60;;;;;;;19.83;67.37;101435.66;6305967;22;19999;-59
2022/09/06 05:58:33;;;;;;;8.55;7.65;;;;;;;19.85;67.38;101436.19;6306475;22;19999;-58
2022/09/06 06:01:13;;;;;;;9.75;7.30;;;;;;;19.91;67.07;101433.31;6305653;22;20057;-58
2022/09/06 06:03:39;;;;;;;9.32;7.70;;;;;;;19.88;67.58;101423.47;6306434;22;20078;-58
2022/09/06 06:06:04;;;;;;;9.07;7.30;;;;;;;19.96;67.11;101425.63;6305904;22;20363;-58
2022/09/06 06:08:30;;;;;;;8.52;7.70;;;;;;;19.99;67.24;101430.66;6305081;22;20012;-58
2022/09/06 06:10:59;;;;;;;11.68;7.38;;;;;;;19.99;67.59;101432.63;6305662;22;20003;-58
2022/09/06 06:13:26;;;;;;;8.50;7.25;;;;;;;20.04;66.20;101435.38;6306253;22;20007;-58
2022/09/06 06:15:51;;;;;;;11.20;7.05;;;;;;;20.05;66.80;101434.25;6304437;22;20003;-58
2022/09/06 06:18:16;;;;;;;11.20;6.90;;;;;;;20.17;66.77;101437.47;6305197;22;20416;-59
2022/09/06 06:20:42;;;;;;;10.40;6.88;;;;;;;20.23;66.63;101436.22;6305099;22;20031;-58
2022/09/06 06:23:07;;;;;;;8.63;6.60;;;;;;;20.35;66.40;101436.59;6305451;22;20003;-58
2022/09/06 06:25:33;;;;;;;8.77;6.68;;;;;;;20.34;66.66;101428.47;6305955;22;20409;-58
2022/09/06 06:27:58;;;;;;;7.28;6.45;;;;;;;20.46;66.05;101423.19;6305639;22;20015;-58
2022/09/06 06:30:23;;;;;;;9.98;6.47;;;;;;;20.43;65.71;101417.31;6305078;22;20086;-59
2022/09/06 06:32:49;;;;;;;7.38;6.32;;;;;;;20.47;65.85;101422.03;6305555;22;20312;-58
2022/09/06 06:35:14;;;;;;;7.88;6.53;;;;;;;20.51;65.55;101425.13;6304655;22;20087;-59
2022/09/06 06:37:41;;;;;;;9.32;6.60;;;;;;;20.56;65.20;101413.78;6306021;22;20385;-59
2022/09/06 06:40:07;;;;;;;6.85;5.60;;;;;;;20.57;64.99;101412.63;6305969;22;20011;-58
2022/09/06 06:42:32;;;;;;;8.15;5.75;;;;;;;20.63;64.97;101411.38;6305092;22;20121;-58
2022/09/06 06:44:57;;;;;;;3.63;3.03;;;;;;;20.76;62.14;101419.09;6305281;22;19999;-57
2022/09/06 06:47:23;;;;;;;5.20;3.33;;;;;;;20.82;61.17;101420.66;6303326;22;20121;-59
2022/09/06 06:49:48;;;;;;;9.60;5.05;;;;;;;20.81;63.64;101413.34;6304506;22;20053;-59
2022/09/06 06:52:13;;;;;;;6.22;3.05;;;;;;;20.98;60.83;101414.75;6305800;22;19999;-59
2022/09/06 06:54:38;;;;;;;3.72;2.65;;;;;;;21.06;60.89;101408.38;6305677;22;20078;-59
2022/09/06 06:57:04;;;;;;;4.15;2.40;;;;;;;21.20;59.93;101414.91;6304099;22;19999;-59
2022/09/06 06:59:30;;;;;;;3.45;2.30;;;;;;;21.30;59.88;101409.06;6305955;22;20003;-59
2022/09/06 07:01:55;;;;;;;4.90;3.00;;;;;;;21.41;60.23;101408.88;6304580;22;20019;-59
2022/09/06 07:04:21;;;;;;;4.72;3.10;;;;;;;21.38;61.38;101417.97;6303593;22;20014;-58
2022/09/06 07:06:54;;;;;;;4.63;2.47;;;;;;;21.49;60.32;101410.97;6305113;22;20003;-58
2022/09/06 07:09:20;;;;;;;3.33;2.53;;;;;;;21.55;60.41;101409.75;6304933;22;20003;-59
2022/09/06 07:11:47;;;;;;;5.40;2.97;;;;;;;21.58;60.80;101413.94;6304353;22;20493;-58
2022/09/06 07:14:13;;;;;;;5.28;3.10;;;;;;;21.60;61.58;101406.78;6306002;22;20007;-59
2022/09/06 07:16:38;;;;;;;5.75;3.60;;;;;;;21.60;61.98;101398.31;6305212;22;20438;-59
2022/09/06 07:19:03;;;;;;;3.13;2.80;;;;;;;21.69;61.55;101409.72;6303586;22;20003;-58
2022/09/06 07:21:29;;;;;;;3.83;2.78;;;;;;;21.74;61.66;101404.81;6305705;22;20411;-58
2022/09/06 07:23:55;;;;;;;4.38;2.72;;;;;;;21.78;60.58;101405.84;6305434;22;20378;-58
2022/09/06 07:26:24;;;;;;;4.43;3.10;;;;;;;21.87;61.88;101419.25;6303217;22;20004;-58
2022/09/06 07:28:54;;;;;;;5.30;3.00;;;;;;;21.85;61.37;101413.06;6304892;22;20004;-58
2022/09/06 07:31:19;;;;;;;7.53;3.03;;;;;;;21.84;61.65;101411.38;6305345;22;20007;-58
2022/09/06 07:33:45;;;;;;;7.35;3.20;;;;;;;21.89;62.18;101405.63;6305235;22;20489;-59
2022/09/06 07:36:10;;;;;;;9.20;2.85;;;;;;;21.93;61.16;101404.69;6306486;22;19995;-59
2022/09/06 07:38:35;;;;;;;2.90;2.60;;;;;;;22.01;62.00;101412.41;6307093;22;20010;-58
2022/09/06 07:41:07;;;;;;;5.20;2.92;;;;;;;22.03;61.30;101421.41;6305518;22;20383;-59
2022/09/06 07:43:33;;;;;;;3.63;2.70;;;;;;;22.01;60.65;101420.06;6307460;22;20050;-58
2022/09/06 07:46:07;;;;;;;5.22;2.75;;;;;;;22.06;60.94;101422.78;6305801;22;20007;-58
2022/09/06 07:48:35;;;;;;;4.60;3.20;;;;;;;22.11;60.57;101428.31;6306398;22;20011;-59
2022/09/06 07:51:20;;;;;;;5.15;2.53;;;;;;;22.18;60.37;101423.09;6306994;22;20010;-59
2022/09/06 07:53:51;;;;;;;2.83;2.42;;;;;;;22.27;58.90;101414.69;6305591;22;20343;-60
2022/09/06 07:56:18;;;;;;;5.55;2.47;;;;;;;22.33;60.29;101406.94;6306877;22;20014;-60
2022/09/06 07:58:44;;;;;;;2.28;2.03;;;;;;;22.39;59.19;101405.63;6306959;22;20011;-60
2022/09/06 08:01:13;;;;;;;4.82;2.55;;;;;;;22.47;60.02;101391.56;6305564;22;20436;-60
2022/09/06 08:03:38;;;;;;;4.60;2.50;;;;;;;22.54;59.81;101391.13;6307031;22;20003;-60
2022/09/06 08:06:03;;;;;;;5.68;2.42;;;;;;;22.62;59.45;101396.00;6306840;22;20056;-60
2022/09/06 08:08:29;;;;;;;2.83;2.40;;;;;;;22.67;59.67;101389.38;6304971;22;20018;-59
2022/09/06 08:10:54;;;;;;;2.80;2.30;;;;;;;22.70;60.18;101386.75;6305799;22;20007;-58
2022/09/06 08:13:19;;;;;;;2.83;2.22;;;;;;;22.76;59.03;101393.97;6306969;22;20003;-58
2022/09/06 08:15:45;;;;;;;3.50;2.00;;;;;;;22.79;58.23;101396.16;6305643;22;20011;-58
2022/09/06 08:18:10;;;;;;;3.28;1.83;;;;;;;22.78;58.74;101397.28;6305847;22;20015;-58
2022/09/06 08:20:36;;;;;;;3.45;2.30;;;;;;;22.79;58.51;101398.97;6307060;22;20010;-58
2022/09/06 08:23:01;;;;;;;3.85;2.40;;;;;;;22.79;58.45;101398.13;6305574;22;20003;-58
2022/09/06 08:25:26;;;;;;;3.10;2.13;;;;;;;22.78;57.51;101400.13;6307279;22;20706;-59
2022/09/06 08:27:54;;;;;;;3.17;2.00;;;;;;;22.76;57.83;101402.44;6305257;22;20041;-58
2022/09/06 08:30:20;;;;;;;2.65;2.00;;;;;;;22.67;57.51;101407.19;6307446;22;20027;-58
2022/09/06 08:32:45;;;;;;;3.92;2.10;;;;;;;22.67;58.08;101420.50;6307898;22;20044;-58
2022/09/06 08:35:10;;;;;;;4.38;1.90;;;;;;;22.64;57.89;101419.16;6305670;22;20010;-58
2022/09/06 08:37:36;;;;;;;2.17;1.98;;;;;;;22.70;57.92;101420.69;6306303;22;20130;-58
2022/09/06 08:40:02;;;;;;;3.63;2.13;;;;;;;22.75;57.61;101403.63;6306695;22;20438;-58
2022/09/06 08:42:28;;;;;;;3.08;1.85;;;;;;;22.83;55.77;101403.97;6306907;22;20003;-58
2022/09/06 08:44:59;;;;;;;4.15;2.40;;;;;;;22.92;57.94;101402.09;6306105;22;20073;-58
2022/09/06 08:47:24;;;;;;;4.57;2.50;;;;;;;22.93;57.11;101400.91;6305346;22;20021;-59
2022/09/06 08:50:01;;;;;;;4.55;2.30;;;;;;;23.03;57.61;101404.31;6306466;22;20382;-58
2022/09/06 08:52:51;;;;;;;3.22;2.53;;;;;;;23.09;57.51;101407.84;6308010;22;20048;-59
2022/09/06 08:55:28;;;;;;;5.72;2.45;;;;;;;23.16;58.18;101399.72;6306853;22;20030;-59
2022/09/06 08:58:09;;;;;;;4.75;1.95;;;;;;;23.22;57.59;101395.56;6306100;22;20019;-59
2022/09/06 09:00:36;;;;;;;7.40;2.50;;;;;;;23.21;57.05;101404.41;6307277;22;20018;-59
2022/09/06 09:03:23;;;;;;;5.03;2.40;;;;;;;23.29;57.25;101397.94;6306100;22;20031;-59
2022/09/06 09:05:52;;;;;;;5.32;2.03;;;;;;;23.35;56.77;101404.31;6307316;22;20115;-59
2022/09/06 09:08:26;;;;;;;4.18;2.38;;;;;;;23.42;56.26;101408.34;6305848;22;20003;-58
2022/09/06 09:11:01;;;;;;;5.00;2.30;;;;;;;23.47;57.38;101407.38;6306393;22;20003;-59
2022/09/06 09:13:33;;;;;;;4.13;1.92;;;;;;;23.57;57.38;101395.72;6305861;22;20113;-59
2022/09/06 09:15:58;;;;;;;4.25;2.10;;;;;;;23.54;55.76;101396.41;6307130;22;20328;-59
2022/09/06 09:18:33;;;;;;;3.38;2.22;;;;;;;23.64;56.86;101389.59;6306025;22;20014;-59
2022/09/06 09:20:59;;;;;;;4.65;2.25;;;;;;;23.66;56.23;101388.13;6305967;22;20003;-59
2022/09/06 09:23:24;;;;;;;4.10;2.40;;;;;;;23.69;56.53;101380.94;6307083;22;20009;-59
2022/09/06 09:25:53;;;;;;;3.72;2.30;;;;;;;23.74;56.05;101393.00;6304507;22;19999;-59
2022/09/06 09:28:22;;;;;;;4.03;2.38;;;;;;;23.83;56.59;101393.00;6306992;22;20003;-59
2022/09/06 09:30:53;;;;;;;4.63;2.40;;;;;;;23.88;56.77;101390.00;6306448;22;20023;-59
2022/09/06 09:33:32;;;;;;;4.83;2.90;;;;;;;23.87;56.16;101393.19;6305705;22;20305;-59
2022/09/06 09:36:01;;;;;;;3.15;2.25;;;;;;;23.90;56.07;101399.03;6306018;22;19999;-59
2022/09/06 09:38:29;;;;;;;4.47;2.63;;;;;;;23.90;56.32;101399.03;6302451;22;20088;-59
2022/09/06 09:40:59;;;;;;;5.43;2.55;;;;;;;23.92;56.58;101402.34;6306157;22;20014;-59
2022/09/06 09:43:32;;;;;;;3.97;2.40;;;;;;;24.00;56.30;101395.84;6306536;22;20030;-59
2022/09/06 09:46:15;;;;;;;4.68;2.30;;;;;;;24.12;56.02;101394.38;6304750;22;20380;-59
2022/09/06 09:48:59;;;;;;;3.78;2.40;;;;;;;24.09;55.81;101390.22;6306378;22;20022;-59
2022/09/06 09:51:25;;;;;;;4.80;2.78;;;;;;;24.09;55.61;101393.06;6306282;22;20305;-59
2022/09/06 09:53:56;;;;;;;6.78;2.30;;;;;;;24.19;56.37;101387.03;6306682;22;20003;-59
2022/09/06 09:56:34;;;;;;;5.10;2.50;;;;;;;24.31;56.23;101388.41;6305925;22;20018;-58
2022/09/06 09:59:00;;;;;;;3.38;2.88;;;;;;;24.29;55.36;101382.19;6306040;22;20082;-58
2022/09/06 10:01:29;;;;;;;4.95;2.70;;;;;;;24.39;55.08;101387.59;6304732;22;20011;-59
2022/09/06 10:04:04;;;;;;;5.30;2.63;;;;;;;24.42;55.39;101390.59;6307093;22;20007;-59
2022/09/06 10:06:30;;;;;;;2.55;2.15;;;;;;;24.44;55.07;101390.25;6305981;22;20007;-59
2022/09/06 10:08:55;;;;;;;4.63;2.45;;;;;;;24.50;54.76;101391.75;6306307;22;20065;-59
2022/09/06 10:11:48;;;;;;;3.95;2.30;;;;;;;24.57;54.70;101408.28;6305734;22;19999;-59
2022/09/06 10:14:59;;;;;;;4.57;2.80;;;;;;;24.59;55.28;101408.78;6305403;22;20003;-59
2022/09/06 10:17:37;;;;;;;3.43;2.53;;;;;;;24.66;55.60;101397.75;6300589;22;20007;-59
2022/09/06 10:20:09;;;;;;;6.28;2.78;;;;;;;24.66;54.94;101401.44;6305285;22;20476;-58
2022/09/06 10:22:42;;;;;;;5.20;2.97;;;;;;;24.71;54.58;101406.91;6305043;22;20075;-58
2022/09/06 10:25:29;;;;;;;3.92;2.90;;;;;;;24.73;54.80;101407.44;6306849;22;20007;-58
2022/09/06 10:28:03;;;;;;;5.15;2.72;;;;;;;24.81;54.44;101407.78;6304946;22;20415;-58
2022/09/06 10:30:31;;;;;;;5.95;2.85;;;;;;;24.83;54.38;101409.06;6307679;22;20037;-60
2022/09/06 10:33:08;;;;;;;6.55;3.20;;;;;;;24.90;54.95;101400.06;6306618;22;20343;-59
2022/09/06 10:35:36;;;;;;;5.82;3.15;;;;;;;24.94;54.43;101401.06;6306697;22;19999;-59
2022/09/06 10:38:29;;;;;;;7.35;2.80;;;;;;;25.00;54.65;101393.19;6304630;22;20004;-59
2022/09/06 10:41:06;;;;;;;6.28;2.70;;;;;;;25.06;55.29;101389.81;6306942;22;20323;-58
2022/09/06 10:43:46;;;;;;;4.05;2.90;;;;;;;25.11;54.34;101394.50;6304686;22;20374;-59
2022/09/06 10:46:20;;;;;;;4.78;3.10;;;;;;;25.20;54.33;101396.16;6304906;22;20011;-59
2022/09/06 10:48:46;;;;;;;7.13;3.10;;;;;;;25.18;54.12;101389.97;6305585;22;20354;-59
2022/09/06 10:51:26;;;;;;;5.90;2.95;;;;;;;25.19;53.71;101388.81;6306239;22;20018;-58
2022/09/06 10:53:54;;;;;;;4.88;2.97;;;;;;;25.18;54.12;101384.28;6306336;22;20100;-59
2022/09/06 10:56:38;;;;;;;4.65;2.85;;;;;;;25.19;53.71;101380.31;6304446;22;20007;-59
2022/09/06 10:59:41;;;;;;;4.88;2.80;;;;;;;25.21;54.37;101391.31;6305166;22;20011;-58
2022/09/06 11:02:20;;;;;;;5.38;3.10;;;;;;;25.21;54.07;101391.31;6305757;22;20082;-58
2022/09/06 11:04:49;;;;;;;8.00;3.80;;;;;;;25.29;53.41;101386.78;6304902;22;20454;-59
2022/09/06 11:07:27;;;;;;;9.10;3.65;;;;;;;25.30;53.31;101383.59;6305226;22;20454;-59
2022/09/06 11:10:15;;;;;;;7.60;3.42;;;;;;;25.28;53.50;101400.16;6306464;22;20011;-59
2022/09/06 11:12:47;;;;;;;4.68;3.05;;;;;;;25.28;53.65;101394.47;6307805;22;20003;-59
2022/09/06 11:15:14;;;;;;;7.40;3.85;;;;;;;25.38;52.96;101396.09;6307347;22;20007;-59
2022/09/06 11:17:47;;;;;;;5.22;3.40;;;;;;;25.44;53.59;101406.13;6307142;22;19999;-58
2022/09/06 11:20:35;;;;;;;5.72;2.58;;;;;;;25.57;53.47;101405.03;6307981;22;20007;-59
2022/09/06 11:23:29;;;;;;;5.28;3.20;;;;;;;25.65;52.83;101409.84;6308244;22;20000;-59
2022/09/06 11:26:24;;;;;;;5.13;3.28;;;;;;;25.66;52.92;101408.69;6307417;22;20011;-59
2022/09/06 11:28:56;;;;;;;7.10;3.17;;;;;;;25.78;52.53;101407.13;6307759;22;20042;-58
2022/09/06 11:31:30;;;;;;;7.45;3.20;;;;;;;25.79;52.42;101417.34;6306474;22;20003;-58
2022/09/06 11:34:25;;;;;;;6.35;3.10;;;;;;;25.78;52.07;101410.84;6306891;22;19999;-58
2022/09/06 11:36:54;;;;;;;6.32;3.38;;;;;;;25.86;50.88;101415.63;6306965;22;20035;-59
2022/09/06 11:39:31;;;;;;;6.28;3.10;;;;;;;25.88;51.54;101409.59;6306799;22;20008;-59
2022/09/06 11:41:57;;;;;;;5.70;3.03;;;;;;;25.85;50.54;101411.09;6307062;22;20419;-59